createdAt,value
2023-02-11T00:13:34.451Z,0.0
2023-02-11T00:20:49.829Z,0.0
2023-02-11T00:27:11.430Z,0.0
2023-02-11T00:36:54.069Z,0.0
2023-02-11T00:47:05.308Z,0.0
2023-02-11T00:57:45.628Z,0.0
2023-02-11T01:05:55.864Z,0.0
2023-02-11T01:16:38.114Z,0.0
2023-02-11T01:23:44.617Z,0.0
2023-02-11T01:34:58.547Z,0.0
2023-02-11T01:51:53.810Z,0.0
2023-02-11T01:59:37.218Z,0.0
2023-02-11T02:09:52.738Z,0.0
2023-02-11T02:17:03.652Z,0.0
2023-02-11T02:25:45.729Z,0.0
2023-02-11T02:32:07.478Z,0.0
2023-02-11T02:41:53.751Z,0.0
2023-02-11T02:54:52.512Z,0.0
2023-02-11T03:01:14.181Z,0.0
2023-02-11T03:09:01.187Z,0.0
2023-02-11T03:18:28.657Z,0.0
2023-02-11T03:33:03.290Z,0.0
2023-02-11T03:39:25.085Z,0.0
2023-02-11T03:45:48.403Z,0.0
2023-02-11T03:52:10.941Z,0.0
2023-02-11T04:01:21.817Z,0.0
2023-02-11T04:07:44.116Z,0.0
2023-02-11T04:14:06.528Z,0.0
2023-02-11T04:20:27.932Z,0.0
2023-02-11T04:26:49.967Z,0.0
2023-02-11T04:38:16.595Z,0.0
2023-02-11T04:44:38.377Z,0.0
2023-02-11T04:50:59.941Z,0.0
2023-02-11T04:57:22.297Z,0.0
2023-02-11T05:03:44.831Z,0.0
2023-02-11T05:10:07.826Z,0.0
2023-02-11T05:21:03.444Z,0.0
2023-02-11T05:27:25.972Z,0.0
2023-02-11T05:35:36.733Z,0.0
2023-02-11T05:44:33.034Z,0.0
2023-02-11T05:50:55.829Z,0.0
2023-02-11T06:02:01.852Z,0.0
2023-02-11T06:12:15.948Z,0.0
2023-02-11T06:27:10.223Z,0.0
2023-02-11T06:33:33.602Z,0.0
2023-02-11T06:39:56.374Z,0.0
2023-02-11T06:51:50.278Z,0.0
2023-02-11T06:59:05.129Z,0.0
2023-02-11T07:05:27.373Z,0.0
2023-02-11T07:11:50.264Z,0.0
2023-02-11T07:18:14.854Z,0.7867224080267559
2023-02-11T07:29:45.723Z,3.1426421404682263
2023-02-11T07:44:51.566Z,3.7049832775919738
2023-02-11T07:51:16.212Z,4.105886287625419
2023-02-11T07:57:41.408Z,5.116755852842814
2023-02-11T08:04:05.687Z,6.154448160535114
2023-02-11T08:10:30.672Z,7.807056856187294
2023-02-11T08:16:55.289Z,10.412307692307703
2023-02-11T08:23:19.862Z,12.381872909698988
2023-02-11T08:29:46.545Z,13.025317725752503
2023-02-11T08:36:28.907Z,15.895953177257514
2023-02-11T08:54:50.594Z,23.256588628762536
2023-02-11T09:01:29.897Z,26.52337792642141
2023-02-11T09:13:30.103Z,29.839866220735793
2023-02-11T09:19:54.683Z,28.79157190635451
2023-02-11T09:26:19.016Z,25.338260869565215
2023-02-11T09:32:43.178Z,22.807625418060194
2023-02-11T09:39:06.945Z,23.359197324414705
2023-02-11T09:45:30.993Z,22.05769230769232
2023-02-11T09:56:43.316Z,28.089063545150488
2023-02-11T10:03:22.818Z,28.35438127090301
2023-02-11T10:09:59.292Z,35.32906354515051
2023-02-11T10:16:23.391Z,29.407424749163884
2023-02-11T10:22:47.778Z,27.167993311036774
2023-02-11T10:29:12.125Z,31.152909698996677
2023-02-11T10:35:36.761Z,28.081270903010044
2023-02-11T10:42:01.565Z,23.58404682274248
2023-02-11T10:48:25.658Z,24.331571906354522
2023-02-11T10:54:53.552Z,38.383277591973254
2023-02-11T11:01:24.734Z,56.88454849498328
2023-02-11T11:07:50.253Z,50.84926421404682
2023-02-11T11:14:15.765Z,51.10732441471572
2023-02-11T11:21:11.917Z,63.123678929765894
2023-02-11T11:27:36.461Z,36.61163879598658
2023-02-11T11:34:00.522Z,21.489866220735777
2023-02-11T11:41:01.100Z,13.912876254180592
2023-02-11T11:47:24.683Z,16.63879598662207
2023-02-11T11:53:49.443Z,22.592709030100323
2023-02-11T12:01:22.392Z,25.285685618729087
2023-02-11T12:11:49.900Z,28.802341137123726
2023-02-11T12:23:23.288Z,50.32063545150504
2023-02-11T12:29:48.574Z,52.962575250836146
2023-02-11T12:36:13.875Z,47.686789297658905
2023-02-11T12:42:38.665Z,46.9922742474916
2023-02-11T12:49:03.663Z,44.57511705685617
2023-02-11T12:55:28.615Z,42.86541806020062
2023-02-11T13:02:17.451Z,53.482541806020066
2023-02-11T13:21:14.176Z,31.184180602006688
2023-02-11T13:27:39.646Z,29.763377926421416
2023-02-11T13:34:04.994Z,32.40919732441473
2023-02-11T13:40:30.120Z,34.31167224080267
2023-02-11T13:46:55.523Z,22.431605351170553
2023-02-11T13:53:20.139Z,29.186086956521745
2023-02-11T13:59:45.037Z,27.022140468227423
2023-02-11T14:06:09.112Z,21.063545150501668
2023-02-11T14:13:50.099Z,21.61969899665552
2023-02-11T14:20:13.776Z,26.10153846153846
2023-02-11T14:26:47.960Z,19.406923076923075
2023-02-11T14:33:11.751Z,21.664247491638807
2023-02-11T14:47:47.905Z,22.22127090301003
2023-02-11T14:59:15.576Z,27.866454849498325
2023-02-11T15:05:40.491Z,28.80585284280937
2023-02-11T15:16:43.063Z,20.838762541806023
2023-02-11T15:23:07.764Z,15.38521739130436
2023-02-11T15:29:32.327Z,8.678595317725756
2023-02-11T15:35:56.870Z,6.163377926421407
2023-02-11T15:42:52.571Z,4.886387959866222
2023-02-11T15:52:12.972Z,3.8060200668896305
2023-02-11T15:58:38.499Z,4.066488294314383
2023-02-11T16:05:57.272Z,2.37016722408027
2023-02-11T16:12:21.765Z,0.6655518394648826
2023-02-11T16:18:52.057Z,0.0
2023-02-11T16:25:21.491Z,0.0
2023-02-11T16:31:44.470Z,0.0
2023-02-11T16:43:26.008Z,0.0
2023-02-11T16:49:48.861Z,0.0
2023-02-11T17:00:06.972Z,0.0
2023-02-11T17:06:28.877Z,0.0
2023-02-11T17:12:51.078Z,0.0
2023-02-11T17:19:14.582Z,0.0
2023-02-11T17:26:33.939Z,0.0
2023-02-11T17:40:57.148Z,0.0
2023-02-11T17:47:18.490Z,0.0
2023-02-11T17:56:13.318Z,0.0
2023-02-11T18:02:36.037Z,0.0
2023-02-11T18:13:34.575Z,0.0
2023-02-11T18:19:55.534Z,0.0
2023-02-11T18:26:17.027Z,0.0
2023-02-11T18:32:38.629Z,0.0
2023-02-11T18:38:59.938Z,0.0
2023-02-11T18:49:15.397Z,0.0
2023-02-11T18:55:37.334Z,0.0
2023-02-11T19:01:59.571Z,0.0
2023-02-11T19:08:21.069Z,0.0
2023-02-11T19:20:17.616Z,0.0
2023-02-11T19:29:23.821Z,0.0
2023-02-11T19:35:45.889Z,0.0
2023-02-11T19:42:09.824Z,0.0
2023-02-11T19:48:42.983Z,0.0
2023-02-11T19:55:04.795Z,0.0
2023-02-11T20:07:00.285Z,0.0
2023-02-11T20:13:21.812Z,0.0
2023-02-11T20:19:43.556Z,0.0
2023-02-11T20:26:05.384Z,0.0
2023-02-11T20:33:14.850Z,0.0
2023-02-11T20:39:37.064Z,0.0
2023-02-11T20:50:53.246Z,0.0
2023-02-11T21:02:07.819Z,0.0
2023-02-11T21:08:37.366Z,0.0
2023-02-11T21:15:07.216Z,0.0
2023-02-11T21:24:15.777Z,0.0
2023-02-11T21:30:44.186Z,0.0
2023-02-11T21:37:10.639Z,0.0
2023-02-11T21:43:40.885Z,0.0
2023-02-11T21:53:45.671Z,0.0
2023-02-11T22:00:13.057Z,0.0
2023-02-11T22:06:41.968Z,0.0
2023-02-11T22:13:08.174Z,0.0
2023-02-11T22:19:36.919Z,0.0
2023-02-11T22:36:27.661Z,0.0
2023-02-11T22:56:31.278Z,0.0
2023-02-11T23:03:00.935Z,0.0
2023-02-11T23:12:08.083Z,0.0
2023-02-11T23:21:06.001Z,0.0
2023-02-11T23:27:27.593Z,0.0
2023-02-11T23:33:49.679Z,0.0
2023-02-11T23:40:11.019Z,0.0
2023-02-11T23:55:00.043Z,0.0
